Algonac, Michigan
Current Conditions -  °F | °C
As of 5:58 AM on Monday 20 Oct 2014 (Local Time) from KMTC Reporting Station
Overcast Overcast  
Wind Chill:   Ceiling: 5500
Heat Index:   Visibility: 10mi
Dew Point:   Wind: 10mph
Humidity: 87%   Direction: 220°SW
Pressure: 29.86"   Gusts: NA
Location:  42.62°N, 82.53°W
Report Text: KMTC 200958Z AUTO 22009KT 10SM SCT037 OVC055 08/06 A2986 RMK AO2 RAE0954 SLP117 P0004 T00820062 $
Loading
Personal Weather Stations






























Interactive Weather Map
Tropical Storm Tracking
New forecast layout! Learn more

10-Day Weather Forecast

Advertisements
Track Severe Weather on mobile